createdAt,value
2019-04-27T00:02:23.045Z,17.04
2019-04-27T00:05:00.448Z,17.01
2019-04-27T00:07:39.623Z,16.94
2019-04-27T00:10:13.740Z,16.84
2019-04-27T00:12:45.497Z,16.78
2019-04-27T00:15:24.680Z,16.68
2019-04-27T00:17:58.494Z,16.66
2019-04-27T00:20:49.984Z,16.65
2019-04-27T00:23:26.391Z,16.64
2019-04-27T00:25:59.311Z,16.68
2019-04-27T00:28:31.201Z,16.68
2019-04-27T00:31:03.417Z,16.70
2019-04-27T00:33:35.547Z,16.69
2019-04-27T00:36:18.034Z,16.71
2019-04-27T00:38:54.128Z,16.70
2019-04-27T00:41:26.968Z,16.65
2019-04-27T00:43:58.534Z,16.57
2019-04-27T00:46:30.263Z,16.53
2019-04-27T00:49:03.599Z,16.53
2019-04-27T00:51:35.641Z,16.48
2019-04-27T00:54:07.449Z,16.47
2019-04-27T00:56:56.862Z,16.41
2019-04-27T00:59:46.463Z,16.38
2019-04-27T01:02:18.121Z,16.31
2019-04-27T01:04:50.150Z,16.24
2019-04-27T01:07:22.736Z,16.18
2019-04-27T01:09:55.556Z,16.10
2019-04-27T01:12:27.211Z,16.02
2019-04-27T01:14:59.946Z,15.95
2019-04-27T01:17:31.988Z,15.92
2019-04-27T01:20:04.200Z,15.75
2019-04-27T01:22:39.205Z,15.67
2019-04-27T01:25:11.484Z,15.61
2019-04-27T01:28:03.333Z,15.54
2019-04-27T01:30:46.141Z,15.40
2019-04-27T01:33:19.793Z,15.30
2019-04-27T01:35:51.748Z,15.25
2019-04-27T01:38:23.493Z,15.17
2019-04-27T01:40:55.263Z,15.09
2019-04-27T01:43:28.514Z,15.07
2019-04-27T01:46:01.070Z,15.04
2019-04-27T01:48:33.276Z,15.02
2019-04-27T01:51:05.416Z,15.01
2019-04-27T01:53:38.883Z,14.99
2019-04-27T01:56:10.727Z,14.95
2019-04-27T01:58:42.466Z,14.97
2019-04-27T02:01:18.767Z,14.95
2019-04-27T02:03:59.770Z,14.85
2019-04-27T02:06:31.778Z,14.81
2019-04-27T02:09:03.619Z,14.78
2019-04-27T02:11:38.804Z,14.76
2019-04-27T02:14:10.964Z,14.71
2019-04-27T02:16:42.681Z,14.67
2019-04-27T02:19:15.595Z,14.71
2019-04-27T02:21:47.367Z,14.69
2019-04-27T02:24:20.696Z,14.65
2019-04-27T02:26:52.726Z,14.59
2019-04-27T02:29:34.968Z,14.54
2019-04-27T02:32:10.519Z,14.48
2019-04-27T02:34:52.403Z,14.49
2019-04-27T02:37:24.063Z,14.48
2019-04-27T02:39:56.475Z,14.50
2019-04-27T02:42:29.864Z,14.46
2019-04-27T02:45:01.400Z,14.45
2019-04-27T02:47:33.270Z,14.47
2019-04-27T02:50:05.859Z,14.42
2019-04-27T02:52:40.413Z,14.39
2019-04-27T02:55:13.240Z,14.36
2019-04-27T02:57:44.886Z,14.37
2019-04-27T03:00:17.193Z,14.37
2019-04-27T03:02:51.256Z,14.38
2019-04-27T03:05:26.243Z,14.37
2019-04-27T03:07:59.752Z,14.37
2019-04-27T03:10:32.511Z,14.32
2019-04-27T03:13:14.886Z,14.27
2019-04-27T03:16:00.527Z,14.29
2019-04-27T03:18:34.049Z,14.27
2019-04-27T03:21:13.006Z,14.27
2019-04-27T03:23:43.623Z,14.26
2019-04-27T03:26:19.636Z,14.29
2019-04-27T03:28:53.328Z,14.23
2019-04-27T03:31:25.986Z,14.21
2019-04-27T03:34:03.428Z,14.17
2019-04-27T03:36:31.999Z,14.13
2019-04-27T03:39:05.371Z,14.01
2019-04-27T03:41:37.430Z,13.95
2019-04-27T03:44:09.455Z,13.90
2019-04-27T03:46:41.080Z,13.87
2019-04-27T03:49:28.022Z,13.89
2019-04-27T03:51:49.818Z,13.92
2019-04-27T03:54:22.901Z,13.95
2019-04-27T03:56:56.276Z,14.00
2019-04-27T03:59:33.226Z,13.99
2019-04-27T04:02:05.110Z,14.05
2019-04-27T04:04:36.955Z,14.08
2019-04-27T04:07:15.092Z,14.04
2019-04-27T04:09:50.067Z,14.11
2019-04-27T04:12:22.805Z,14.10
2019-04-27T04:14:54.813Z,14.11
2019-04-27T04:17:30.706Z,14.13
2019-04-27T04:20:02.466Z,14.18
2019-04-27T04:22:34.321Z,14.20
2019-04-27T04:25:10.486Z,14.18
2019-04-27T04:27:42.806Z,14.14
2019-04-27T04:30:16.314Z,14.23
2019-04-27T04:32:49.831Z,14.17
2019-04-27T04:35:25.990Z,14.20
2019-04-27T04:38:00.234Z,14.24
2019-04-27T04:40:33.503Z,14.22
2019-04-27T04:43:12.881Z,14.24
2019-04-27T04:46:01.629Z,14.32
2019-04-27T04:48:33.373Z,14.38
2019-04-27T04:51:05.139Z,14.46
2019-04-27T04:53:36.890Z,14.46
2019-04-27T04:56:10.723Z,14.42
2019-04-27T04:58:42.522Z,14.52
2019-04-27T05:01:14.256Z,14.53
2019-04-27T05:03:46.002Z,14.52
2019-04-27T05:06:18.966Z,14.58
2019-04-27T05:08:51.922Z,14.61
2019-04-27T05:11:23.752Z,14.61
2019-04-27T05:13:55.515Z,14.51
2019-04-27T05:16:28.625Z,14.56
2019-04-27T05:19:00.884Z,14.68
2019-04-27T05:21:34.056Z,14.68
2019-04-27T05:24:06.436Z,14.66
2019-04-27T05:26:39.740Z,14.69
2019-04-27T05:29:11.962Z,14.82
2019-04-27T05:31:43.714Z,14.77
2019-04-27T05:34:15.451Z,14.78
2019-04-27T05:36:48.797Z,14.66
2019-04-27T05:39:25.161Z,14.67
2019-04-27T05:41:54.074Z,14.60
2019-04-27T05:44:30.313Z,14.59
2019-04-27T05:47:15.715Z,14.54
2019-04-27T05:49:48.555Z,14.48
2019-04-27T05:52:29.969Z,14.34
2019-04-27T05:55:02.969Z,14.27
2019-04-27T05:57:34.704Z,14.18
2019-04-27T06:00:09.665Z,14.17
2019-04-27T06:02:41.202Z,14.20
2019-04-27T06:05:13.386Z,14.10
2019-04-27T06:07:48.752Z,14.07
2019-04-27T06:10:24.102Z,14.03
2019-04-27T06:12:55.717Z,14.02
2019-04-27T06:15:28.405Z,14.12
2019-04-27T06:18:00.786Z,14.25
2019-04-27T06:20:32.529Z,14.21
2019-04-27T06:23:05.230Z,14.23
2019-04-27T06:25:39.224Z,14.14
2019-04-27T06:28:12.204Z,14.05
2019-04-27T06:30:43.935Z,14.01
2019-04-27T06:33:29.311Z,13.88
2019-04-27T06:35:49.529Z,13.82
2019-04-27T06:38:22.838Z,13.60
2019-04-27T06:40:54.575Z,13.57
2019-04-27T06:43:29.286Z,13.45
2019-04-27T06:46:01.201Z,13.54
2019-04-27T06:48:32.932Z,13.50
2019-04-27T06:51:05.657Z,13.55
2019-04-27T06:53:39.445Z,13.35
2019-04-27T06:56:11.330Z,13.44
2019-04-27T06:58:43.071Z,13.46
2019-04-27T07:01:14.843Z,13.38
2019-04-27T07:03:46.568Z,13.37
2019-04-27T07:06:18.985Z,13.45
2019-04-27T07:08:50.725Z,13.55
2019-04-27T07:11:22.735Z,13.66
2019-04-27T07:13:54.512Z,13.78
2019-04-27T07:16:26.675Z,13.86
2019-04-27T07:18:59.376Z,13.92
2019-04-27T07:21:31.753Z,13.98
2019-04-27T07:24:03.457Z,13.76
2019-04-27T07:26:35.532Z,13.69
2019-04-27T07:29:09.643Z,13.64
2019-04-27T07:31:41.993Z,13.55
2019-04-27T07:34:14.062Z,13.60
2019-04-27T07:36:45.960Z,13.62
2019-04-27T07:39:19.257Z,13.68
2019-04-27T07:41:51.246Z,13.78
2019-04-27T07:44:31.413Z,13.73
2019-04-27T07:47:16.647Z,13.73
2019-04-27T07:49:49.662Z,13.64
2019-04-27T07:52:21.628Z,13.63
2019-04-27T07:54:53.368Z,13.63
2019-04-27T07:57:25.106Z,13.87
2019-04-27T07:59:59.631Z,13.83
2019-04-27T08:02:31.464Z,13.75
2019-04-27T08:05:03.683Z,13.79
2019-04-27T08:07:35.214Z,13.88
2019-04-27T08:10:09.509Z,13.67
2019-04-27T08:12:40.924Z,13.50
2019-04-27T08:15:12.673Z,13.62
2019-04-27T08:17:44.415Z,13.59
2019-04-27T08:20:16.544Z,13.49
2019-04-27T08:22:49.673Z,13.48
2019-04-27T08:25:23.202Z,13.42
2019-04-27T08:27:57.810Z,13.55
2019-04-27T08:30:31.026Z,13.45
2019-04-27T08:33:04.311Z,13.45
2019-04-27T08:35:36.047Z,13.45
2019-04-27T08:38:09.039Z,13.56
2019-04-27T08:40:41.307Z,13.78
2019-04-27T08:43:13.055Z,13.86
2019-04-27T08:45:44.899Z,13.90
2019-04-27T08:48:33.367Z,13.91
2019-04-27T08:50:51.708Z,13.89
2019-04-27T08:53:23.565Z,13.79
2019-04-27T08:55:55.311Z,13.70
2019-04-27T08:58:28.667Z,13.77
2019-04-27T09:01:00.289Z,13.62
2019-04-27T09:03:32.046Z,13.56
2019-04-27T09:06:12.688Z,13.68
2019-04-27T09:08:49.607Z,13.73
2019-04-27T09:11:24.468Z,13.72
2019-04-27T09:14:00.071Z,13.55
2019-04-27T09:16:57.233Z,13.59
2019-04-27T09:19:37.169Z,13.60
2019-04-27T09:22:15.669Z,13.58
2019-04-27T09:24:43.592Z,13.28
2019-04-27T09:27:17.391Z,13.41
2019-04-27T09:29:49.965Z,13.42
2019-04-27T09:32:22.129Z,13.63
2019-04-27T09:34:53.671Z,13.64
2019-04-27T09:37:28.480Z,13.64
2019-04-27T09:40:00.322Z,13.58
2019-04-27T09:42:33.231Z,13.73
2019-04-27T09:45:18.903Z,13.81
2019-04-27T09:47:56.287Z,14.00
2019-04-27T09:50:31.368Z,14.20
2019-04-27T09:53:03.418Z,14.45
2019-04-27T09:55:36.887Z,14.38
2019-04-27T09:58:08.822Z,14.21
2019-04-27T10:00:41.100Z,13.77
2019-04-27T10:03:14.372Z,13.61
2019-04-27T10:05:47.740Z,13.67
2019-04-27T10:08:19.463Z,13.60
2019-04-27T10:10:51.903Z,13.84
2019-04-27T10:13:29.909Z,13.76
2019-04-27T10:16:09.089Z,13.74
2019-04-27T10:18:43.516Z,13.98
2019-04-27T10:21:16.297Z,14.22
2019-04-27T10:23:48.234Z,14.05
2019-04-27T10:26:21.760Z,14.01
2019-04-27T10:28:53.623Z,14.09
2019-04-27T10:31:25.307Z,14.12
2019-04-27T10:33:57.015Z,14.15
2019-04-27T10:36:40.831Z,14.13
2019-04-27T10:39:13.828Z,14.05
2019-04-27T10:41:49.345Z,14.00
2019-04-27T10:44:20.904Z,14.12
2019-04-27T10:46:54.645Z,14.15
2019-04-27T10:49:31.580Z,14.16
2019-04-27T10:52:03.553Z,14.18
2019-04-27T10:54:36.235Z,14.26
2019-04-27T10:57:09.940Z,14.48
2019-04-27T10:59:46.160Z,14.27
2019-04-27T11:02:18.792Z,14.33
2019-04-27T11:05:00.657Z,14.29
2019-04-27T11:07:34.087Z,14.54
2019-04-27T11:10:08.147Z,14.88
2019-04-27T11:12:46.970Z,15.15
2019-04-27T11:15:21.016Z,15.19
2019-04-27T11:17:53.544Z,15.14
2019-04-27T11:20:27.508Z,15.30
2019-04-27T11:23:07.228Z,15.52
2019-04-27T11:25:32.982Z,15.87
2019-04-27T11:28:05.800Z,15.98
2019-04-27T11:30:39.144Z,15.63
2019-04-27T11:33:10.977Z,15.36
2019-04-27T11:35:50.395Z,15.24
2019-04-27T11:38:24.465Z,14.94
2019-04-27T11:41:02.470Z,14.92
2019-04-27T11:43:36.602Z,14.87
2019-04-27T11:46:09.760Z,14.81
2019-04-27T11:48:41.756Z,14.82
2019-04-27T11:51:13.587Z,14.91
2019-04-27T11:53:46.823Z,15.03
2019-04-27T11:56:18.690Z,14.99
2019-04-27T11:58:50.549Z,15.05
2019-04-27T12:01:28.859Z,14.83
2019-04-27T12:04:05.865Z,14.86
2019-04-27T12:06:37.746Z,14.73
2019-04-27T12:09:10.163Z,14.55
2019-04-27T12:11:43.442Z,14.57
2019-04-27T12:14:16.651Z,14.47
2019-04-27T12:16:57.069Z,14.35
2019-04-27T12:19:29.792Z,14.37
2019-04-27T12:22:01.483Z,14.49
2019-04-27T12:24:33.391Z,14.49
2019-04-27T12:27:20.001Z,14.57
2019-04-27T12:30:06.271Z,14.57
2019-04-27T12:32:39.511Z,14.88
2019-04-27T12:35:11.600Z,15.28
2019-04-27T12:37:43.344Z,15.17
2019-04-27T12:40:16.717Z,15.05
2019-04-27T12:42:48.743Z,15.20
2019-04-27T12:45:20.547Z,15.21
2019-04-27T12:47:52.375Z,15.37
2019-04-27T12:50:26.080Z,15.42
2019-04-27T12:53:07.319Z,15.61
2019-04-27T12:55:38.949Z,15.68
2019-04-27T12:58:21.926Z,15.74
2019-04-27T13:00:58.338Z,15.86
2019-04-27T13:03:31.146Z,16.18
2019-04-27T13:06:02.855Z,16.13
2019-04-27T13:08:35.728Z,16.33
2019-04-27T13:11:10.935Z,16.43
2019-04-27T13:13:43.923Z,16.48
2019-04-27T13:19:33.097Z,16.19
2019-04-27T13:22:06.171Z,16.18
2019-04-27T13:24:39.466Z,16.36
2019-04-27T13:27:13.113Z,16.79
2019-04-27T13:29:47.745Z,16.83
2019-04-27T13:32:19.552Z,16.74
2019-04-27T13:34:51.942Z,16.94
2019-04-27T13:37:46.735Z,16.73
2019-04-27T13:40:20.842Z,16.71
2019-04-27T13:42:58.449Z,16.98
2019-04-27T13:45:41.481Z,17.22
2019-04-27T13:48:17.064Z,17.53
2019-04-27T13:50:51.029Z,17.37
2019-04-27T13:53:22.864Z,17.56
2019-04-27T13:55:56.629Z,17.47
2019-04-27T13:58:28.254Z,17.14
2019-04-27T14:00:59.789Z,16.88
2019-04-27T14:03:31.638Z,16.99
2019-04-27T14:06:03.371Z,16.86
2019-04-27T14:08:35.117Z,16.94
2019-04-27T14:11:06.857Z,17.31
2019-04-27T14:13:39.167Z,17.16
2019-04-27T14:16:11.302Z,16.61
2019-04-27T14:18:43.061Z,16.56
2019-04-27T14:21:14.794Z,16.62
2019-04-27T14:23:48.416Z,16.51
2019-04-27T14:26:20.229Z,16.49
2019-04-27T14:28:59.437Z,16.23
2019-04-27T14:31:35.540Z,16.33
2019-04-27T14:34:15.303Z,16.35
2019-04-27T14:36:48.871Z,16.50
2019-04-27T14:39:28.569Z,16.65
2019-04-27T14:42:10.294Z,16.67
2019-04-27T14:44:48.940Z,16.72
2019-04-27T14:47:20.875Z,16.71
2019-04-27T14:50:05.963Z,16.68
2019-04-27T14:52:30.549Z,16.94
2019-04-27T14:55:11.635Z,16.86
2019-04-27T14:57:43.805Z,17.09
2019-04-27T15:00:19.168Z,17.26
2019-04-27T15:02:50.848Z,17.22
2019-04-27T15:05:25.405Z,17.25
2019-04-27T15:08:01.609Z,17.37
2019-04-27T15:10:32.880Z,17.21
2019-04-27T15:13:06.401Z,17.29
2019-04-27T15:15:48.008Z,17.45
2019-04-27T15:18:42.165Z,17.26
2019-04-27T15:21:25.476Z,17.47
2019-04-27T15:24:02.428Z,17.30
2019-04-27T15:26:31.725Z,17.03
2019-04-27T15:29:05.108Z,16.86
2019-04-27T15:31:39.047Z,16.88
2019-04-27T15:34:27.643Z,17.06
2019-04-27T15:37:03.308Z,17.30
2019-04-27T15:39:52.714Z,17.07
2019-04-27T15:42:48.977Z,17.08
2019-04-27T15:45:20.542Z,17.00
2019-04-27T15:47:55.662Z,17.09
2019-04-27T15:50:32.167Z,16.88
2019-04-27T15:53:12.546Z,16.93
2019-04-27T15:55:47.186Z,17.01
2019-04-27T15:58:41.448Z,17.05
2019-04-27T16:01:13.319Z,16.80
2019-04-27T16:03:48.166Z,16.53
2019-04-27T16:06:21.722Z,16.41
2019-04-27T16:08:59.037Z,16.37
2019-04-27T16:11:36.206Z,16.26
2019-04-27T16:14:10.952Z,16.25
2019-04-27T16:16:42.598Z,16.27
2019-04-27T16:19:14.333Z,16.29
2019-04-27T16:21:54.326Z,16.23
2019-04-27T16:24:28.989Z,16.23
2019-04-27T16:27:03.559Z,16.21
2019-04-27T16:29:35.199Z,16.22
2019-04-27T16:32:11.144Z,16.14
2019-04-27T16:34:41.355Z,16.17
2019-04-27T16:37:20.733Z,16.23
2019-04-27T16:39:49.593Z,16.15
2019-04-27T16:42:21.385Z,16.04
2019-04-27T16:44:53.328Z,15.87
2019-04-27T16:47:25.177Z,15.83
2019-04-27T16:49:58.637Z,15.62
2019-04-27T16:52:34.372Z,15.43
2019-04-27T16:55:12.619Z,15.36
2019-04-27T16:57:47.353Z,15.42
2019-04-27T17:00:30.214Z,15.41
2019-04-27T17:03:01.374Z,15.39
2019-04-27T17:05:34.828Z,15.33
2019-04-27T17:08:14.245Z,15.37
2019-04-27T17:10:40.617Z,15.36
2019-04-27T17:13:19.496Z,15.36
2019-04-27T17:16:11.072Z,15.41
2019-04-27T17:19:06.230Z,15.44
2019-04-27T17:21:41.258Z,15.37
2019-04-27T17:24:17.934Z,15.28
2019-04-27T17:26:54.393Z,15.19
2019-04-27T17:29:32.617Z,15.14
2019-04-27T17:32:06.743Z,15.01
2019-04-27T17:34:42.233Z,14.88
2019-04-27T17:37:20.564Z,14.72
2019-04-27T17:39:53.570Z,14.60
2019-04-27T17:42:27.499Z,14.46
2019-04-27T17:45:00.562Z,14.37
2019-04-27T17:47:33.037Z,14.26
2019-04-27T17:50:05.677Z,14.11
2019-04-27T17:52:43.563Z,13.99
2019-04-27T17:55:17.860Z,13.80
2019-04-27T17:57:50.493Z,13.64
2019-04-27T18:00:24.060Z,13.39
2019-04-27T18:02:58.059Z,13.19
2019-04-27T18:05:39.019Z,13.03
2019-04-27T18:08:18.354Z,12.92
2019-04-27T18:10:57.540Z,12.80
2019-04-27T18:13:30.956Z,12.71
2019-04-27T18:16:08.988Z,12.66
2019-04-27T18:19:05.084Z,12.48
2019-04-27T18:21:38.640Z,12.36
2019-04-27T18:24:18.543Z,12.21
2019-04-27T18:27:08.999Z,12.02
2019-04-27T18:29:42.111Z,11.80
2019-04-27T18:32:17.949Z,11.64
2019-04-27T18:34:55.537Z,11.57
2019-04-27T18:37:28.284Z,11.51
2019-04-27T18:40:00.011Z,11.47
2019-04-27T18:42:31.768Z,11.43
2019-04-27T18:45:08.128Z,11.38
2019-04-27T18:47:41.492Z,11.24
2019-04-27T18:50:24.268Z,11.11
2019-04-27T18:52:58.136Z,11.06
2019-04-27T18:55:30.563Z,11.03
2019-04-27T18:58:02.475Z,10.97
2019-04-27T19:00:35.455Z,10.95
2019-04-27T19:03:09.323Z,10.89
2019-04-27T19:05:43.583Z,10.81
2019-04-27T19:08:15.292Z,10.79
2019-04-27T19:10:47.297Z,10.75
2019-04-27T19:13:19.308Z,10.76
2019-04-27T19:15:54.025Z,10.70
2019-04-27T19:18:25.857Z,10.59
2019-04-27T19:20:58.450Z,10.48
2019-04-27T19:23:31.199Z,10.47
2019-04-27T19:26:12.107Z,10.47
2019-04-27T19:29:03.078Z,10.44
2019-04-27T19:32:00.158Z,10.41
2019-04-27T19:34:31.794Z,10.41
2019-04-27T19:37:08.296Z,10.31
2019-04-27T19:39:39.829Z,10.20
2019-04-27T19:42:23.922Z,10.13
2019-04-27T19:44:59.048Z,10.03
2019-04-27T19:47:38.461Z,10.07
2019-04-27T19:50:13.814Z,10.05
2019-04-27T19:52:58.623Z,10.01
2019-04-27T19:55:33.811Z,9.95
2019-04-27T19:58:13.932Z,9.89
2019-04-27T20:00:51.950Z,9.88
2019-04-27T20:03:39.834Z,9.81
2019-04-27T20:06:11.509Z,9.68
2019-04-27T20:08:54.186Z,9.62
2019-04-27T20:11:32.932Z,9.62
2019-04-27T20:14:14.870Z,9.64
2019-04-27T20:16:51.939Z,9.65
2019-04-27T20:19:32.038Z,9.68
2019-04-27T20:22:08.266Z,9.64
2019-04-27T20:24:44.614Z,9.59
2019-04-27T20:27:18.096Z,9.53
2019-04-27T20:29:58.480Z,9.43
2019-04-27T20:32:40.671Z,9.25
2019-04-27T20:35:12.962Z,9.13
2019-04-27T20:37:45.988Z,9.08
2019-04-27T20:40:22.185Z,9.06
2019-04-27T20:42:59.470Z,9.09
2019-04-27T20:45:32.744Z,9.06
2019-04-27T20:48:06.244Z,9.11
2019-04-27T20:50:38.003Z,9.13
2019-04-27T20:53:13.731Z,9.11
2019-04-27T20:55:48.453Z,9.07
2019-04-27T21:01:13.039Z,9.20
2019-04-27T21:03:57.347Z,9.32
2019-04-27T21:06:37.723Z,9.42
2019-04-27T21:09:21.304Z,9.51
2019-04-27T21:12:00.403Z,9.56
2019-04-27T21:14:35.259Z,9.61
2019-04-27T21:17:14.730Z,9.66
2019-04-27T21:19:48.609Z,9.72
2019-04-27T21:22:31.469Z,9.76
2019-04-27T21:25:08.018Z,9.81
2019-04-27T21:27:43.801Z,9.83
2019-04-27T21:30:18.933Z,9.81
2019-04-27T21:32:54.361Z,9.81
2019-04-27T21:35:29.229Z,9.83
2019-04-27T21:38:02.218Z,9.83
2019-04-27T21:40:36.945Z,9.84
2019-04-27T21:43:11.330Z,9.83
2019-04-27T21:45:47.788Z,9.83
2019-04-27T21:48:24.351Z,9.82
2019-04-27T21:50:58.683Z,9.80
2019-04-27T21:53:35.814Z,9.80
2019-04-27T21:56:11.834Z,9.78
2019-04-27T21:58:51.138Z,9.81
2019-04-27T22:01:31.671Z,9.81
2019-04-27T22:04:15.777Z,9.82
2019-04-27T22:06:51.106Z,9.80
2019-04-27T22:09:23.688Z,9.75
2019-04-27T22:12:02.468Z,9.55
2019-04-27T22:14:46.562Z,9.35
2019-04-27T22:17:25.257Z,9.18
2019-04-27T22:19:58.266Z,9.04
2019-04-27T22:22:31.765Z,8.91
2019-04-27T22:25:07.579Z,8.77
2019-04-27T22:27:39.119Z,8.65
2019-04-27T22:30:11.226Z,8.60
2019-04-27T22:32:42.950Z,8.58
2019-04-27T22:35:15.351Z,8.54
2019-04-27T22:37:47.089Z,8.48
2019-04-27T22:40:21.480Z,8.47
2019-04-27T22:43:11.851Z,8.50
2019-04-27T22:45:45.196Z,8.46
2019-04-27T22:48:16.977Z,8.43
2019-04-27T22:50:48.613Z,8.41
2019-04-27T22:53:21.194Z,8.33
2019-04-27T22:56:11.442Z,8.32
2019-04-27T22:58:57.485Z,8.32
2019-04-27T23:01:27.746Z,8.25
2019-04-27T23:04:07.122Z,8.23
2019-04-27T23:06:38.716Z,8.19
2019-04-27T23:09:11.774Z,8.25
2019-04-27T23:11:45.616Z,8.24
2019-04-27T23:14:17.492Z,8.27
2019-04-27T23:16:50.867Z,8.33
2019-04-27T23:19:24.055Z,8.37
2019-04-27T23:21:55.792Z,8.40
2019-04-27T23:24:27.645Z,8.45
2019-04-27T23:27:03.408Z,8.49
2019-04-27T23:29:33.593Z,8.52
2019-04-27T23:32:08.503Z,8.49
2019-04-27T23:34:41.495Z,8.50
2019-04-27T23:37:13.470Z,8.53
2019-04-27T23:40:03.821Z,8.55
2019-04-27T23:42:35.420Z,8.55
2019-04-27T23:45:12.112Z,8.51
2019-04-27T23:47:44.472Z,8.48
2019-04-27T23:50:19.237Z,8.49
2019-04-27T23:52:56.935Z,8.45
2019-04-27T23:55:34.363Z,8.43
2019-04-27T23:58:06.371Z,8.43
